Time;durP1;ratioP1;P1;durP2;ratioP2;P2;SDS_P1;SDS_P2;PMS_P1;PMS_P2;Temp;Humidity;BMP_temperature;BMP_pressure;BME280_temperature;BME280_humidity;BME280_pressure;Samples;Min_cycle;Max_cycle;Signal;HPM_P1;HPM_P2
2022/02/05 00:10:45;;;;;;;1.65;0.90;;;5.50;99.90;;;;;;20793539;28;20045;-45
2022/02/05 00:41:31;;;;;;;4.03;0.50;;;5.60;99.90;;;;;;20787589;28;20410;-45
2022/02/05 00:52:17;;;;;;;4.03;0.98;;;5.50;99.90;;;;;;20800749;28;20506;-45
2022/02/05 01:01:56;;;;;;;4.72;0.50;;;5.40;99.90;;;;;;20762649;28;20481;-45
2022/02/05 01:11:58;;;;;;;8.85;1.10;;;5.30;99.90;;;;;;20791102;28;20057;-45
2022/02/05 01:22:01;;;;;;;0.70;0.32;;;5.20;99.90;;;;;;20779498;28;20057;-45
2022/02/05 01:32:06;;;;;;;2.42;0.30;;;5.10;99.90;;;;;;20787629;28;20292;-45
2022/02/05 02:13:51;;;;;;;1.50;0.35;;;4.80;99.90;;;;;;20782174;28;20300;-45
2022/02/05 02:23:23;;;;;;;2.15;0.32;;;4.80;99.90;;;;;;20769841;28;20132;-45
2022/02/05 02:33:31;;;;;;;0.65;0.25;;;4.90;99.90;;;;;;20782509;28;20053;-45
2022/02/05 02:43:34;;;;;;;0.57;0.32;;;4.90;99.90;;;;;;20784130;28;20100;-45
2022/02/05 03:03:54;;;;;;;2.75;0.30;;;4.60;99.90;;;;;;20782111;28;20132;-45
2022/02/05 03:13:55;;;;;;;1.47;0.40;;;4.60;99.90;;;;;;20787041;28;20080;-45
2022/02/05 03:23:55;;;;;;;7.07;0.60;;;4.60;99.90;;;;;;20784636;28;20376;-45
2022/02/05 03:33:56;;;;;;;0.65;0.15;;;4.60;99.90;;;;;;20800886;28;20426;-45
2022/02/05 03:43:58;;;;;;;1.73;0.57;;;4.70;99.90;;;;;;20799364;28;20037;-45
2022/02/05 03:54:00;;;;;;;0.52;0.32;;;4.70;99.90;;;;;;20788797;28;20146;-45
2022/02/05 04:04:01;;;;;;;3.35;0.43;;;4.70;99.90;;;;;;20772949;28;20033;-45
2022/02/05 04:24:24;;;;;;;4.13;0.50;;;4.60;99.90;;;;;;20783171;28;20041;-45
2022/02/05 04:34:24;;;;;;;8.82;0.88;;;4.60;99.90;;;;;;20796205;28;20133;-45
2022/02/05 05:24:52;;;;;;;2.05;0.40;;;4.60;99.90;;;;;;20788476;28;20120;-45
2022/02/05 05:34:53;;;;;;;0.60;0.25;;;4.50;99.90;;;;;;20777067;28;20068;-45
2022/02/05 05:54:54;;;;;;;1.93;1.07;;;4.30;99.90;;;;;;20773544;28;20454;-45
2022/02/05 06:04:55;;;;;;;2.08;0.57;;;4.20;99.90;;;;;;20778603;28;20451;-45
2022/02/05 06:14:58;;;;;;;1.92;0.40;;;4.20;99.90;;;;;;20777891;28;20800;-45
2022/02/05 06:24:59;;;;;;;5.03;0.65;;;4.10;99.90;;;;;;20775906;28;20433;-45
2022/02/05 06:35:00;;;;;;;1.73;0.38;;;4.00;99.90;;;;;;20775923;28;20456;-45
2022/02/05 06:45:01;;;;;;;0.68;0.40;;;4.00;99.90;;;;;;20787974;28;20045;-45
2022/02/05 06:55:03;;;;;;;1.52;0.40;;;3.80;99.90;;;;;;20770888;28;20110;-45
2022/02/05 07:05:04;;;;;;;0.77;0.40;;;3.80;99.90;;;;;;20801950;28;20414;-45
2022/02/05 07:15:13;;;;;;;5.38;0.57;;;3.80;99.90;;;;;;20791147;28;20045;-45
2022/02/05 07:35:37;;;;;;;1.27;0.32;;;3.90;99.90;;;;;;20789181;28;20067;-45
2022/02/05 07:45:42;;;;;;;0.77;0.40;;;4.00;99.90;;;;;;20788903;28;20045;-45
2022/02/05 07:55:43;;;;;;;0.73;0.28;;;4.10;99.90;;;;;;20794445;28;20049;-45
2022/02/05 08:05:44;;;;;;;1.17;0.60;;;4.30;99.90;;;;;;20790763;28;20046;-45
2022/02/05 08:15:52;;;;;;;0.93;0.35;;;4.50;99.90;;;;;;20786892;28;20049;-45
2022/02/05 08:25:55;;;;;;;;;;;4.70;99.90;;;;;;20793482;28;20042;-45
2022/02/05 08:35:57;;;;;;;1.63;0.50;;;4.80;99.90;;;;;;20779156;28;19929;-45
2022/02/05 08:45:58;;;;;;;5.78;0.75;;;5.00;99.90;;;;;;20761114;28;20049;-45
2022/02/05 08:55:59;;;;;;;3.50;0.77;;;5.20;99.90;;;;;;20783400;28;20041;-45
2022/02/05 09:06:02;;;;;;;6.03;0.90;;;5.50;99.90;;;;;;20775807;28;20060;-45
2022/02/05 09:16:03;;;;;;;5.43;0.75;;;5.60;99.90;;;;;;20767608;28;20041;-45
2022/02/05 09:26:04;;;;;;;3.55;1.75;;;5.80;99.90;;;;;;20782703;28;20046;-45
2022/02/05 09:36:06;;;;;;;2.92;0.57;;;6.20;99.90;;;;;;20790611;28;20080;-45
2022/02/05 09:46:08;;;;;;;1.27;0.32;;;6.20;99.90;;;;;;20772793;28;20445;-45
2022/02/05 09:56:08;;;;;;;5.63;0.55;;;6.40;99.90;;;;;;20777054;28;20051;-45
2022/02/05 10:06:33;;;;;;;3.67;0.77;;;6.40;99.90;;;;;;20767407;28;20042;-45
2022/02/05 10:16:33;;;;;;;2.05;0.80;;;6.50;99.90;;;;;;20781159;28;20665;-46
2022/02/05 10:26:39;;;;;;;1.48;0.60;;;6.80;99.90;;;;;;20760967;28;20049;-45
2022/02/05 10:36:42;;;;;;;3.75;0.43;;;6.80;99.90;;;;;;20761099;28;20533;-45
2022/02/05 10:46:43;;;;;;;5.72;0.38;;;7.00;99.90;;;;;;20758941;28;20045;-45
2022/02/05 10:57:10;;;;;;;5.18;0.57;;;7.40;99.90;;;;;;20761231;28;20084;-45
2022/02/05 11:07:15;;;;;;;6.93;1.05;;;7.60;99.90;;;;;;20759552;28;20041;-46
2022/02/05 11:27:44;;;;;;;7.53;0.88;;;8.00;99.90;;;;;;20750472;28;20096;-46
2022/02/05 11:37:54;;;;;;;9.65;1.15;;;8.50;99.90;;;;;;20765843;28;20037;-46
2022/02/05 11:47:57;;;;;;;4.88;0.38;;;9.40;99.90;;;;;;20777910;28;20543;-45
2022/02/05 11:58:01;;;;;;;21.90;1.25;;;9.20;99.90;;;;;;20803956;28;20049;-46
2022/02/05 12:08:33;;;;;;;2.97;0.52;;;8.80;99.90;;;;;;20769662;28;20115;-45
2022/02/05 12:19:11;;;;;;;2.08;0.70;;;8.50;99.90;;;;;;20780490;28;20041;-46
2022/02/05 12:29:27;;;;;;;4.38;0.60;;;8.80;99.90;;;;;;20780799;28;20263;-46
2022/02/05 12:39:32;;;;;;;1.75;0.50;;;8.60;99.90;;;;;;20777215;28;20059;-46
2022/02/05 12:49:54;;;;;;;15.40;0.95;;;8.40;99.90;;;;;;20781803;28;20127;-46
2022/02/05 12:59:55;;;;;;;8.52;2.33;;;8.40;99.90;;;;;;20768152;28;20041;-45
2022/02/05 13:10:01;;;;;;;7.90;1.02;;;8.50;99.90;;;;;;20743284;28;20489;-46
2022/02/05 13:40:39;;;;;;;2.78;0.47;;;9.20;99.90;;;;;;20774893;28;20063;-46
2022/02/05 13:50:40;;;;;;;5.07;0.57;;;8.70;99.90;;;;;;20763579;28;20037;-47
2022/02/05 14:00:48;;;;;;;3.35;1.20;;;8.90;99.90;;;;;;20742528;28;20069;-47
2022/02/05 14:11:00;;;;;;;4.43;0.40;;;9.00;99.90;;;;;;20762204;28;20103;-44
2022/02/05 14:21:03;;;;;;;2.97;0.40;;;8.60;99.90;;;;;;20753296;28;20132;-44
2022/02/05 14:31:12;;;;;;;4.47;0.50;;;8.30;99.90;;;;;;20751156;28;20053;-44
2022/02/05 14:41:12;;;;;;;4.75;0.38;;;8.40;99.90;;;;;;20736113;28;21152;-45
2022/02/05 14:51:13;;;;;;;2.70;0.47;;;8.20;99.90;;;;;;20752238;28;20517;-45
2022/02/05 15:01:20;;;;;;;2.47;0.70;;;8.50;99.90;;;;;;20738734;28;20124;-45
2022/02/05 15:11:21;;;;;;;1.80;0.50;;;8.50;99.90;;;;;;20743725;28;20073;-44
2022/02/05 15:21:31;;;;;;;7.28;1.02;;;8.30;99.90;;;;;;20745953;28;20520;-45
2022/02/05 15:31:32;;;;;;;3.42;0.85;;;8.30;99.90;;;;;;20749965;28;20049;-45
2022/02/05 15:51:52;;;;;;;0.57;0.25;;;8.20;99.90;;;;;;20751375;28;20045;-44
2022/02/05 16:01:53;;;;;;;3.88;0.63;;;8.20;99.90;;;;;;20743631;28;20037;-45
2022/02/05 16:11:56;;;;;;;4.87;1.30;;;8.30;99.90;;;;;;20750250;28;20203;-44
2022/02/05 16:21:57;;;;;;;7.63;1.13;;;8.40;99.90;;;;;;20746846;28;20268;-45
2022/02/05 16:31:58;;;;;;;3.50;1.25;;;8.30;99.90;;;;;;20737470;28;20048;-45
2022/02/05 16:41:59;;;;;;;4.47;0.63;;;8.30;99.90;;;;;;20795035;28;20052;-45
2022/02/05 16:52:00;;;;;;;4.25;0.80;;;8.30;99.90;;;;;;20796240;28;20045;-45
2022/02/05 17:02:02;;;;;;;14.75;3.13;;;8.30;99.90;;;;;;20826517;28;20468;-47
2022/02/05 17:12:09;;;;;;;3.17;0.95;;;8.30;99.90;;;;;;20815723;28;20702;-44
2022/02/05 17:22:10;;;;;;;2.90;0.53;;;8.30;99.90;;;;;;20809166;28;20120;-46
2022/02/05 17:32:11;;;;;;;1.58;0.40;;;8.40;99.90;;;;;;20809638;28;20073;-47
2022/02/05 17:42:12;;;;;;;2.97;0.85;;;8.50;99.90;;;;;;20794894;28;20079;-47
2022/02/05 17:52:12;;;;;;;6.45;1.50;;;8.50;99.90;;;;;;20818192;28;20049;-45
2022/02/05 18:02:20;;;;;;;7.50;0.98;;;8.40;99.90;;;;;;20813870;28;20380;-45
2022/02/05 18:12:24;;;;;;;3.17;1.13;;;8.10;99.90;;;;;;20809591;28;20076;-44
2022/02/05 18:22:24;;;;;;;5.30;1.33;;;8.00;99.90;;;;;;20802701;28;20100;-46
2022/02/05 18:32:25;;;;;;;6.88;1.30;;;7.50;99.90;;;;;;20795299;28;20401;-46
2022/02/05 18:42:29;;;;;;;1.98;0.93;;;7.40;99.90;;;;;;20806457;28;20794;-46
2022/02/05 18:52:30;;;;;;;9.50;2.35;;;7.30;99.90;;;;;;20827389;28;20459;-46
2022/02/05 19:02:42;;;;;;;2.93;0.77;;;7.20;99.90;;;;;;20831238;28;20045;-46
2022/02/05 19:22:44;;;;;;;4.50;1.33;;;7.20;99.90;;;;;;20832914;28;20048;-46
2022/02/05 19:32:44;;;;;;;2.85;1.30;;;7.20;99.90;;;;;;20835968;28;20061;-46
2022/02/05 19:42:46;;;;;;;2.20;1.30;;;7.20;99.90;;;;;;20842168;28;20045;-46
2022/02/05 19:52:47;;;;;;;3.67;0.98;;;7.20;99.90;;;;;;20845947;28;20046;-46
2022/02/05 20:02:49;;;;;;;8.18;2.03;;;7.20;99.90;;;;;;20832566;28;20119;-46
2022/02/05 20:12:50;;;;;;;11.05;0.75;;;7.40;99.90;;;;;;20833872;28;20049;-46
2022/02/05 20:22:51;;;;;;;3.85;1.42;;;7.50;99.90;;;;;;20827893;28;20160;-46
2022/02/05 20:32:52;;;;;;;4.75;1.02;;;7.60;99.90;;;;;;20829819;28;20176;-46
2022/02/05 20:42:52;;;;;;;2.70;0.93;;;7.60;99.90;;;;;;20822375;28;20133;-47
2022/02/05 20:52:55;;;;;;;4.47;1.30;;;7.50;99.90;;;;;;20835501;28;20312;-48
2022/02/05 21:02:55;;;;;;;5.80;1.05;;;7.50;99.90;;;;;;20822135;28;20272;-48
2022/02/05 21:12:56;;;;;;;9.93;2.57;;;7.50;99.90;;;;;;20801855;28;20098;-48
2022/02/05 21:23:01;;;;;;;9.57;2.03;;;7.50;99.90;;;;;;20798399;28;20370;-48
2022/02/05 21:33:04;;;;;;;4.82;0.93;;;7.50;99.90;;;;;;20811223;28;20050;-48
2022/02/05 21:43:04;;;;;;;5.32;1.63;;;7.50;99.90;;;;;;20824167;28;20103;-48
2022/02/05 21:53:06;;;;;;;9.17;1.67;;;7.50;99.90;;;;;;20809112;28;20049;-49
2022/02/05 22:03:14;;;;;;;3.78;1.00;;;7.60;99.90;;;;;;20793677;28;20300;-48
2022/02/05 22:13:15;;;;;;;4.85;0.93;;;7.70;99.90;;;;;;20769541;28;20037;-48
2022/02/05 22:23:17;;;;;;;2.72;0.57;;;7.80;99.90;;;;;;20782438;28;20201;-48
2022/02/05 22:33:18;;;;;;;6.85;0.68;;;7.80;99.90;;;;;;20772785;28;20041;-48
2022/02/05 22:43:19;;;;;;;5.00;0.88;;;7.90;99.90;;;;;;20779160;28;20049;-49
2022/02/05 22:53:22;;;;;;;2.30;0.90;;;7.90;99.90;;;;;;20776960;28;20042;-49
2022/02/05 23:03:24;;;;;;;4.13;1.17;;;7.90;99.90;;;;;;20780315;28;20143;-48
2022/02/05 23:44:07;;;;;;;12.27;1.55;;;8.20;99.90;;;;;;20796172;28;20378;-48
2022/02/05 23:54:08;;;;;;;11.85;1.17;;;8.20;99.90;;;;;;20792217;28;20505;-47
